sensor_id;sensor_type;location;lat;lon;timestamp;P1;durP1;ratioP1;P2;durP2;ratioP2
41946;SDS011;27638;42.184;24.848;2023-02-16T00:04:27;66.75;;;31.65;;
41946;SDS011;27638;42.184;24.848;2023-02-16T00:06:54;59.70;;;29.10;;
41946;SDS011;27638;42.184;24.848;2023-02-16T00:09:21;51.88;;;24.30;;
41946;SDS011;27638;42.184;24.848;2023-02-16T00:11:48;42.47;;;24.38;;
41946;SDS011;27638;42.184;24.848;2023-02-16T00:14:34;47.22;;;24.30;;
41946;SDS011;27638;42.184;24.848;2023-02-16T00:17:01;45.00;;;23.70;;
41946;SDS011;27638;42.184;24.848;2023-02-16T00:19:28;47.75;;;23.17;;
41946;SDS011;27638;42.184;24.848;2023-02-16T00:21:58;42.17;;;23.30;;
41946;SDS011;27638;42.184;24.848;2023-02-16T00:24:24;44.42;;;22.50;;
41946;SDS011;27638;42.184;24.848;2023-02-16T00:26:51;42.45;;;22.88;;
41946;SDS011;27638;42.184;24.848;2023-02-16T00:31:56;42.67;;;21.90;;
41946;SDS011;27638;42.184;24.848;2023-02-16T00:34:57;44.00;;;23.20;;
41946;SDS011;27638;42.184;24.848;2023-02-16T00:37:16;40.17;;;21.73;;
41946;SDS011;27638;42.184;24.848;2023-02-16T00:39:42;42.38;;;21.27;;
41946;SDS011;27638;42.184;24.848;2023-02-16T00:42:21;42.10;;;21.35;;
41946;SDS011;27638;42.184;24.848;2023-02-16T00:44:54;40.60;;;20.65;;
41946;SDS011;27638;42.184;24.848;2023-02-16T00:47:36;40.65;;;19.88;;
41946;SDS011;27638;42.184;24.848;2023-02-16T00:50:15;41.80;;;19.33;;
41946;SDS011;27638;42.184;24.848;2023-02-16T00:52:47;40.35;;;18.98;;
41946;SDS011;27638;42.184;24.848;2023-02-16T00:57:49;36.03;;;19.10;;
41946;SDS011;27638;42.184;24.848;2023-02-16T01:00:31;38.88;;;19.80;;
41946;SDS011;27638;42.184;24.848;2023-02-16T01:03:04;33.50;;;17.70;;
41946;SDS011;27638;42.184;24.848;2023-02-16T01:05:34;34.38;;;17.25;;
41946;SDS011;27638;42.184;24.848;2023-02-16T01:07:59;36.50;;;19.35;;
41946;SDS011;27638;42.184;24.848;2023-02-16T01:10:44;36.85;;;17.17;;
41946;SDS011;27638;42.184;24.848;2023-02-16T01:13:28;36.35;;;17.98;;
41946;SDS011;27638;42.184;24.848;2023-02-16T01:16:08;34.17;;;18.38;;
41946;SDS011;27638;42.184;24.848;2023-02-16T01:18:36;31.73;;;17.35;;
41946;SDS011;27638;42.184;24.848;2023-02-16T01:21:01;34.47;;;16.83;;
41946;SDS011;27638;42.184;24.848;2023-02-16T01:23:27;35.58;;;17.70;;
41946;SDS011;27638;42.184;24.848;2023-02-16T01:25:53;36.40;;;17.25;;
41946;SDS011;27638;42.184;24.848;2023-02-16T01:28:20;31.92;;;16.33;;
41946;SDS011;27638;42.184;24.848;2023-02-16T01:30:47;35.88;;;18.38;;
41946;SDS011;27638;42.184;24.848;2023-02-16T01:33:14;32.60;;;17.90;;
41946;SDS011;27638;42.184;24.848;2023-02-16T01:35:40;33.28;;;17.48;;
41946;SDS011;27638;42.184;24.848;2023-02-16T01:38:06;35.35;;;17.65;;
41946;SDS011;27638;42.184;24.848;2023-02-16T01:43:09;46.13;;;21.95;;
41946;SDS011;27638;42.184;24.848;2023-02-16T01:45:50;35.95;;;18.83;;
41946;SDS011;27638;42.184;24.848;2023-02-16T01:48:39;34.72;;;18.20;;
41946;SDS011;27638;42.184;24.848;2023-02-16T01:53:49;36.35;;;17.63;;
41946;SDS011;27638;42.184;24.848;2023-02-16T01:59:00;37.38;;;19.27;;
41946;SDS011;27638;42.184;24.848;2023-02-16T02:04:10;34.45;;;19.67;;
41946;SDS011;27638;42.184;24.848;2023-02-16T02:06:57;36.35;;;18.00;;
41946;SDS011;27638;42.184;24.848;2023-02-16T02:09:29;35.97;;;18.15;;
41946;SDS011;27638;42.184;24.848;2023-02-16T02:12:05;31.25;;;16.80;;
41946;SDS011;27638;42.184;24.848;2023-02-16T02:14:44;37.25;;;20.00;;
41946;SDS011;27638;42.184;24.848;2023-02-16T02:17:13;34.88;;;19.23;;
41946;SDS011;27638;42.184;24.848;2023-02-16T02:22:48;46.33;;;21.17;;
41946;SDS011;27638;42.184;24.848;2023-02-16T02:28:38;37.17;;;17.80;;
41946;SDS011;27638;42.184;24.848;2023-02-16T02:36:48;36.88;;;18.58;;
41946;SDS011;27638;42.184;24.848;2023-02-16T02:44:30;43.08;;;21.95;;
41946;SDS011;27638;42.184;24.848;2023-02-16T02:47:01;63.78;;;26.38;;
41946;SDS011;27638;42.184;24.848;2023-02-16T02:49:27;62.53;;;28.02;;
41946;SDS011;27638;42.184;24.848;2023-02-16T02:51:52;59.35;;;26.88;;
41946;SDS011;27638;42.184;24.848;2023-02-16T02:54:22;47.58;;;23.60;;
41946;SDS011;27638;42.184;24.848;2023-02-16T02:57:18;40.05;;;20.52;;
41946;SDS011;27638;42.184;24.848;2023-02-16T03:00:19;45.30;;;22.20;;
41946;SDS011;27638;42.184;24.848;2023-02-16T03:03:05;45.78;;;21.52;;
41946;SDS011;27638;42.184;24.848;2023-02-16T03:05:35;48.40;;;21.63;;
41946;SDS011;27638;42.184;24.848;2023-02-16T03:08:08;47.13;;;22.25;;
41946;SDS011;27638;42.184;24.848;2023-02-16T03:10:40;52.35;;;23.00;;
41946;SDS011;27638;42.184;24.848;2023-02-16T03:13:31;48.03;;;20.88;;
41946;SDS011;27638;42.184;24.848;2023-02-16T03:16:21;38.20;;;18.73;;
41946;SDS011;27638;42.184;24.848;2023-02-16T03:18:50;45.72;;;21.40;;
41946;SDS011;27638;42.184;24.848;2023-02-16T03:21:35;40.00;;;19.35;;
41946;SDS011;27638;42.184;24.848;2023-02-16T03:24:23;34.63;;;17.38;;
41946;SDS011;27638;42.184;24.848;2023-02-16T03:27:12;37.97;;;18.40;;
41946;SDS011;27638;42.184;24.848;2023-02-16T03:30:00;35.42;;;17.17;;
41946;SDS011;27638;42.184;24.848;2023-02-16T03:32:28;30.60;;;16.00;;
41946;SDS011;27638;42.184;24.848;2023-02-16T03:34:54;36.42;;;17.13;;
41946;SDS011;27638;42.184;24.848;2023-02-16T03:37:19;32.28;;;16.20;;
41946;SDS011;27638;42.184;24.848;2023-02-16T03:39:45;31.10;;;15.77;;
41946;SDS011;27638;42.184;24.848;2023-02-16T03:44:54;32.88;;;17.35;;
41946;SDS011;27638;42.184;24.848;2023-02-16T03:47:20;31.10;;;15.75;;
41946;SDS011;27638;42.184;24.848;2023-02-16T03:49:45;35.35;;;16.55;;
41946;SDS011;27638;42.184;24.848;2023-02-16T03:52:11;36.67;;;17.27;;
41946;SDS011;27638;42.184;24.848;2023-02-16T03:54:36;33.78;;;16.83;;
41946;SDS011;27638;42.184;24.848;2023-02-16T03:57:02;50.20;;;21.45;;
41946;SDS011;27638;42.184;24.848;2023-02-16T03:59:27;53.22;;;24.67;;
41946;SDS011;27638;42.184;24.848;2023-02-16T04:01:52;35.72;;;18.05;;
41946;SDS011;27638;42.184;24.848;2023-02-16T04:04:19;33.85;;;16.27;;
41946;SDS011;27638;42.184;24.848;2023-02-16T04:06:44;58.28;;;24.15;;
41946;SDS011;27638;42.184;24.848;2023-02-16T04:09:09;45.90;;;19.10;;
41946;SDS011;27638;42.184;24.848;2023-02-16T04:11:35;37.00;;;15.85;;
41946;SDS011;27638;42.184;24.848;2023-02-16T04:14:19;30.77;;;15.25;;
41946;SDS011;27638;42.184;24.848;2023-02-16T04:16:45;30.52;;;16.25;;
41946;SDS011;27638;42.184;24.848;2023-02-16T04:19:10;35.05;;;15.40;;
41946;SDS011;27638;42.184;24.848;2023-02-16T04:21:35;38.33;;;17.67;;
41946;SDS011;27638;42.184;24.848;2023-02-16T04:24:01;36.42;;;17.65;;
41946;SDS011;27638;42.184;24.848;2023-02-16T04:26:29;34.20;;;15.68;;
41946;SDS011;27638;42.184;24.848;2023-02-16T04:28:55;42.45;;;20.40;;
41946;SDS011;27638;42.184;24.848;2023-02-16T04:31:21;58.45;;;29.60;;
41946;SDS011;27638;42.184;24.848;2023-02-16T04:33:46;60.10;;;30.33;;
41946;SDS011;27638;42.184;24.848;2023-02-16T04:36:11;46.78;;;25.05;;
41946;SDS011;27638;42.184;24.848;2023-02-16T04:38:37;37.72;;;18.38;;
41946;SDS011;27638;42.184;24.848;2023-02-16T04:41:02;41.28;;;21.35;;
41946;SDS011;27638;42.184;24.848;2023-02-16T04:43:28;46.65;;;24.60;;
41946;SDS011;27638;42.184;24.848;2023-02-16T04:45:53;70.20;;;32.58;;
41946;SDS011;27638;42.184;24.848;2023-02-16T04:48:18;53.35;;;23.55;;
41946;SDS011;27638;42.184;24.848;2023-02-16T04:50:44;37.67;;;18.55;;
41946;SDS011;27638;42.184;24.848;2023-02-16T04:53:09;37.08;;;20.92;;
41946;SDS011;27638;42.184;24.848;2023-02-16T04:55:35;44.05;;;22.77;;
41946;SDS011;27638;42.184;24.848;2023-02-16T04:58:00;35.83;;;17.20;;
41946;SDS011;27638;42.184;24.848;2023-02-16T05:00:26;30.70;;;16.27;;
41946;SDS011;27638;42.184;24.848;2023-02-16T05:02:51;29.98;;;15.73;;
41946;SDS011;27638;42.184;24.848;2023-02-16T05:05:16;32.53;;;16.63;;
41946;SDS011;27638;42.184;24.848;2023-02-16T05:07:42;33.10;;;16.95;;
41946;SDS011;27638;42.184;24.848;2023-02-16T05:10:08;36.05;;;16.30;;
41946;SDS011;27638;42.184;24.848;2023-02-16T05:12:34;36.75;;;20.30;;
41946;SDS011;27638;42.184;24.848;2023-02-16T05:15:18;36.78;;;18.15;;
41946;SDS011;27638;42.184;24.848;2023-02-16T05:17:43;28.77;;;15.43;;
41946;SDS011;27638;42.184;24.848;2023-02-16T05:20:09;31.10;;;15.20;;
41946;SDS011;27638;42.184;24.848;2023-02-16T05:22:35;29.23;;;15.82;;
41946;SDS011;27638;42.184;24.848;2023-02-16T05:25:03;34.83;;;18.77;;
41946;SDS011;27638;42.184;24.848;2023-02-16T05:27:31;39.70;;;19.65;;
41946;SDS011;27638;42.184;24.848;2023-02-16T05:29:57;40.75;;;21.52;;
41946;SDS011;27638;42.184;24.848;2023-02-16T05:32:23;39.42;;;20.52;;
41946;SDS011;27638;42.184;24.848;2023-02-16T05:34:49;40.83;;;21.13;;
41946;SDS011;27638;42.184;24.848;2023-02-16T05:37:15;46.40;;;23.20;;
41946;SDS011;27638;42.184;24.848;2023-02-16T05:39:42;55.40;;;25.23;;
41946;SDS011;27638;42.184;24.848;2023-02-16T05:42:08;46.67;;;24.77;;
41946;SDS011;27638;42.184;24.848;2023-02-16T05:44:33;49.83;;;24.67;;
41946;SDS011;27638;42.184;24.848;2023-02-16T05:46:59;47.38;;;22.23;;
41946;SDS011;27638;42.184;24.848;2023-02-16T05:49:24;49.67;;;23.00;;
41946;SDS011;27638;42.184;24.848;2023-02-16T05:51:49;39.65;;;18.55;;
41946;SDS011;27638;42.184;24.848;2023-02-16T05:54:15;42.55;;;17.42;;
41946;SDS011;27638;42.184;24.848;2023-02-16T05:56:45;36.88;;;18.40;;
41946;SDS011;27638;42.184;24.848;2023-02-16T05:59:12;39.88;;;17.95;;
41946;SDS011;27638;42.184;24.848;2023-02-16T06:01:39;39.30;;;19.75;;
41946;SDS011;27638;42.184;24.848;2023-02-16T06:04:08;43.70;;;19.10;;
41946;SDS011;27638;42.184;24.848;2023-02-16T06:06:35;41.67;;;18.48;;
41946;SDS011;27638;42.184;24.848;2023-02-16T06:09:03;43.97;;;22.52;;
41946;SDS011;27638;42.184;24.848;2023-02-16T06:11:29;45.15;;;23.13;;
41946;SDS011;27638;42.184;24.848;2023-02-16T06:14:11;44.78;;;21.95;;
41946;SDS011;27638;42.184;24.848;2023-02-16T06:16:40;49.60;;;23.05;;
41946;SDS011;27638;42.184;24.848;2023-02-16T06:19:07;48.25;;;22.83;;
41946;SDS011;27638;42.184;24.848;2023-02-16T06:21:33;47.67;;;23.38;;
41946;SDS011;27638;42.184;24.848;2023-02-16T06:24:00;49.75;;;22.55;;
41946;SDS011;27638;42.184;24.848;2023-02-16T06:26:26;49.63;;;25.05;;
41946;SDS011;27638;42.184;24.848;2023-02-16T06:28:52;50.92;;;24.95;;
41946;SDS011;27638;42.184;24.848;2023-02-16T06:31:18;46.75;;;22.45;;
41946;SDS011;27638;42.184;24.848;2023-02-16T06:33:44;44.47;;;21.48;;
41946;SDS011;27638;42.184;24.848;2023-02-16T06:36:09;40.90;;;21.48;;
41946;SDS011;27638;42.184;24.848;2023-02-16T06:38:35;38.65;;;20.02;;
41946;SDS011;27638;42.184;24.848;2023-02-16T06:41:01;39.35;;;20.52;;
41946;SDS011;27638;42.184;24.848;2023-02-16T06:43:26;45.22;;;22.73;;
41946;SDS011;27638;42.184;24.848;2023-02-16T06:45:52;44.50;;;21.05;;
41946;SDS011;27638;42.184;24.848;2023-02-16T06:48:17;40.72;;;21.63;;
41946;SDS011;27638;42.184;24.848;2023-02-16T06:50:43;41.78;;;22.55;;
41946;SDS011;27638;42.184;24.848;2023-02-16T06:53:08;50.58;;;25.92;;
41946;SDS011;27638;42.184;24.848;2023-02-16T06:55:34;47.35;;;22.27;;
41946;SDS011;27638;42.184;24.848;2023-02-16T06:58:01;46.17;;;21.38;;
41946;SDS011;27638;42.184;24.848;2023-02-16T07:00:27;43.33;;;23.50;;
41946;SDS011;27638;42.184;24.848;2023-02-16T07:02:53;39.63;;;20.85;;
41946;SDS011;27638;42.184;24.848;2023-02-16T07:05:19;42.42;;;20.65;;
41946;SDS011;27638;42.184;24.848;2023-02-16T07:07:45;41.70;;;21.27;;
41946;SDS011;27638;42.184;24.848;2023-02-16T07:10:10;37.17;;;20.38;;
41946;SDS011;27638;42.184;24.848;2023-02-16T07:12:36;35.92;;;18.95;;
41946;SDS011;27638;42.184;24.848;2023-02-16T07:15:01;39.45;;;19.75;;
41946;SDS011;27638;42.184;24.848;2023-02-16T07:17:28;35.72;;;20.10;;
41946;SDS011;27638;42.184;24.848;2023-02-16T07:19:53;38.72;;;20.65;;
41946;SDS011;27638;42.184;24.848;2023-02-16T07:22:19;43.30;;;21.00;;
41946;SDS011;27638;42.184;24.848;2023-02-16T07:24:44;37.95;;;19.17;;
41946;SDS011;27638;42.184;24.848;2023-02-16T07:27:09;42.00;;;18.92;;
41946;SDS011;27638;42.184;24.848;2023-02-16T07:29:35;35.75;;;20.13;;
41946;SDS011;27638;42.184;24.848;2023-02-16T07:32:02;43.55;;;20.30;;
41946;SDS011;27638;42.184;24.848;2023-02-16T07:34:27;41.42;;;19.27;;
41946;SDS011;27638;42.184;24.848;2023-02-16T07:36:53;38.70;;;20.10;;
41946;SDS011;27638;42.184;24.848;2023-02-16T07:39:19;37.08;;;20.27;;
41946;SDS011;27638;42.184;24.848;2023-02-16T07:41:44;37.00;;;19.75;;
41946;SDS011;27638;42.184;24.848;2023-02-16T07:44:10;38.10;;;19.30;;
41946;SDS011;27638;42.184;24.848;2023-02-16T07:46:35;37.40;;;18.92;;
41946;SDS011;27638;42.184;24.848;2023-02-16T07:49:00;35.50;;;18.25;;
41946;SDS011;27638;42.184;24.848;2023-02-16T07:51:27;39.92;;;18.70;;
41946;SDS011;27638;42.184;24.848;2023-02-16T07:53:55;39.15;;;19.95;;
41946;SDS011;27638;42.184;24.848;2023-02-16T07:56:25;34.35;;;17.83;;
41946;SDS011;27638;42.184;24.848;2023-02-16T07:58:57;36.28;;;19.73;;
41946;SDS011;27638;42.184;24.848;2023-02-16T08:01:24;37.42;;;18.85;;
41946;SDS011;27638;42.184;24.848;2023-02-16T08:03:50;35.17;;;18.95;;
41946;SDS011;27638;42.184;24.848;2023-02-16T08:06:17;34.47;;;17.63;;
41946;SDS011;27638;42.184;24.848;2023-02-16T08:08:42;34.70;;;18.55;;
41946;SDS011;27638;42.184;24.848;2023-02-16T08:11:15;38.85;;;18.70;;
41946;SDS011;27638;42.184;24.848;2023-02-16T08:13:44;33.03;;;19.08;;
41946;SDS011;27638;42.184;24.848;2023-02-16T08:16:10;37.53;;;19.10;;
41946;SDS011;27638;42.184;24.848;2023-02-16T08:18:39;32.85;;;18.10;;
41946;SDS011;27638;42.184;24.848;2023-02-16T08:21:12;33.58;;;18.85;;
41946;SDS011;27638;42.184;24.848;2023-02-16T08:23:43;35.70;;;18.10;;
41946;SDS011;27638;42.184;24.848;2023-02-16T08:26:16;35.58;;;18.15;;
41946;SDS011;27638;42.184;24.848;2023-02-16T08:28:44;32.90;;;18.50;;
41946;SDS011;27638;42.184;24.848;2023-02-16T08:31:15;37.42;;;20.20;;
41946;SDS011;27638;42.184;24.848;2023-02-16T08:33:45;31.38;;;17.83;;
41946;SDS011;27638;42.184;24.848;2023-02-16T08:36:18;34.75;;;18.17;;
41946;SDS011;27638;42.184;24.848;2023-02-16T08:38:47;34.10;;;18.38;;
41946;SDS011;27638;42.184;24.848;2023-02-16T08:41:17;35.00;;;17.98;;
41946;SDS011;27638;42.184;24.848;2023-02-16T08:43:43;38.10;;;18.55;;
41946;SDS011;27638;42.184;24.848;2023-02-16T08:46:09;34.03;;;19.35;;
41946;SDS011;27638;42.184;24.848;2023-02-16T08:48:35;37.03;;;20.20;;
41946;SDS011;27638;42.184;24.848;2023-02-16T08:51:01;38.60;;;21.17;;
41946;SDS011;27638;42.184;24.848;2023-02-16T08:53:27;41.10;;;21.70;;
41946;SDS011;27638;42.184;24.848;2023-02-16T08:55:57;37.15;;;20.88;;
41946;SDS011;27638;42.184;24.848;2023-02-16T08:58:23;37.47;;;21.30;;
41946;SDS011;27638;42.184;24.848;2023-02-16T09:00:50;36.55;;;20.83;;
41946;SDS011;27638;42.184;24.848;2023-02-16T09:03:16;39.20;;;21.23;;
41946;SDS011;27638;42.184;24.848;2023-02-16T09:05:46;42.42;;;22.67;;
41946;SDS011;27638;42.184;24.848;2023-02-16T09:08:13;40.25;;;21.98;;
41946;SDS011;27638;42.184;24.848;2023-02-16T09:10:39;43.60;;;22.75;;
41946;SDS011;27638;42.184;24.848;2023-02-16T09:13:04;46.63;;;23.23;;
41946;SDS011;27638;42.184;24.848;2023-02-16T09:15:31;47.63;;;25.00;;
41946;SDS011;27638;42.184;24.848;2023-02-16T09:17:57;47.00;;;24.65;;
41946;SDS011;27638;42.184;24.848;2023-02-16T09:20:22;42.53;;;23.02;;
41946;SDS011;27638;42.184;24.848;2023-02-16T09:22:48;43.35;;;22.25;;
41946;SDS011;27638;42.184;24.848;2023-02-16T09:25:14;40.78;;;23.73;;
41946;SDS011;27638;42.184;24.848;2023-02-16T09:27:40;43.97;;;25.15;;
41946;SDS011;27638;42.184;24.848;2023-02-16T09:30:07;45.33;;;24.90;;
41946;SDS011;27638;42.184;24.848;2023-02-16T09:32:34;42.92;;;23.35;;
41946;SDS011;27638;42.184;24.848;2023-02-16T09:35:00;46.30;;;24.52;;
41946;SDS011;27638;42.184;24.848;2023-02-16T09:37:26;48.30;;;24.88;;
41946;SDS011;27638;42.184;24.848;2023-02-16T09:39:51;42.58;;;22.25;;
41946;SDS011;27638;42.184;24.848;2023-02-16T09:42:32;44.00;;;24.33;;
41946;SDS011;27638;42.184;24.848;2023-02-16T09:45:21;66.10;;;32.70;;
41946;SDS011;27638;42.184;24.848;2023-02-16T09:47:49;79.85;;;39.17;;
41946;SDS011;27638;42.184;24.848;2023-02-16T09:50:23;46.45;;;23.70;;
41946;SDS011;27638;42.184;24.848;2023-02-16T09:55:24;51.15;;;27.60;;
41946;SDS011;27638;42.184;24.848;2023-02-16T10:00:33;46.17;;;24.30;;
41946;SDS011;27638;42.184;24.848;2023-02-16T10:06:27;45.65;;;24.08;;
41946;SDS011;27638;42.184;24.848;2023-02-16T10:09:13;46.17;;;25.48;;
41946;SDS011;27638;42.184;24.848;2023-02-16T10:16:56;47.60;;;24.58;;
41946;SDS011;27638;42.184;24.848;2023-02-16T10:19:41;41.55;;;23.98;;
41946;SDS011;27638;42.184;24.848;2023-02-16T10:22:13;46.08;;;22.70;;
41946;SDS011;27638;42.184;24.848;2023-02-16T10:24:57;41.78;;;22.83;;
41946;SDS011;27638;42.184;24.848;2023-02-16T10:29:57;45.10;;;23.75;;
41946;SDS011;27638;42.184;24.848;2023-02-16T10:32:27;43.90;;;23.15;;
41946;SDS011;27638;42.184;24.848;2023-02-16T10:35:05;44.40;;;23.67;;
41946;SDS011;27638;42.184;24.848;2023-02-16T10:45:55;40.78;;;23.77;;
41946;SDS011;27638;42.184;24.848;2023-02-16T10:48:25;44.55;;;23.25;;
41946;SDS011;27638;42.184;24.848;2023-02-16T10:53:23;38.58;;;22.10;;
41946;SDS011;27638;42.184;24.848;2023-02-16T10:55:59;43.88;;;22.92;;
41946;SDS011;27638;42.184;24.848;2023-02-16T10:58:25;42.85;;;24.05;;
41946;SDS011;27638;42.184;24.848;2023-02-16T11:03:49;46.15;;;23.05;;
41946;SDS011;27638;42.184;24.848;2023-02-16T11:06:21;42.70;;;23.48;;
41946;SDS011;27638;42.184;24.848;2023-02-16T11:08:53;45.53;;;24.13;;
41946;SDS011;27638;42.184;24.848;2023-02-16T11:11:25;43.05;;;23.20;;
41946;SDS011;27638;42.184;24.848;2023-02-16T11:13:59;41.15;;;22.17;;
41946;SDS011;27638;42.184;24.848;2023-02-16T11:16:28;35.35;;;21.58;;
41946;SDS011;27638;42.184;24.848;2023-02-16T11:18:58;39.75;;;21.80;;
41946;SDS011;27638;42.184;24.848;2023-02-16T11:21:44;42.75;;;20.67;;
41946;SDS011;27638;42.184;24.848;2023-02-16T11:24:13;40.25;;;21.13;;
41946;SDS011;27638;42.184;24.848;2023-02-16T11:27:31;39.88;;;20.33;;
41946;SDS011;27638;42.184;24.848;2023-02-16T11:29:37;33.42;;;18.67;;
41946;SDS011;27638;42.184;24.848;2023-02-16T11:32:04;33.38;;;18.33;;
41946;SDS011;27638;42.184;24.848;2023-02-16T11:37:12;27.25;;;16.40;;
41946;SDS011;27638;42.184;24.848;2023-02-16T11:39:52;35.03;;;18.73;;
41946;SDS011;27638;42.184;24.848;2023-02-16T11:42:39;28.15;;;16.40;;
41946;SDS011;27638;42.184;24.848;2023-02-16T11:45:19;31.83;;;17.02;;
41946;SDS011;27638;42.184;24.848;2023-02-16T11:48:06;25.70;;;16.23;;
41946;SDS011;27638;42.184;24.848;2023-02-16T11:50:37;31.50;;;17.58;;
41946;SDS011;27638;42.184;24.848;2023-02-16T11:55:47;29.42;;;16.55;;
41946;SDS011;27638;42.184;24.848;2023-02-16T11:58:21;29.92;;;16.75;;
41946;SDS011;27638;42.184;24.848;2023-02-16T12:00:58;29.60;;;17.38;;
41946;SDS011;27638;42.184;24.848;2023-02-16T12:06:45;27.88;;;16.02;;
41946;SDS011;27638;42.184;24.848;2023-02-16T12:09:39;29.40;;;16.08;;
41946;SDS011;27638;42.184;24.848;2023-02-16T12:15:33;29.40;;;15.77;;
41946;SDS011;27638;42.184;24.848;2023-02-16T12:18:14;31.00;;;17.55;;
41946;SDS011;27638;42.184;24.848;2023-02-16T12:24:10;28.48;;;16.73;;
41946;SDS011;27638;42.184;24.848;2023-02-16T12:35:11;27.38;;;14.85;;
41946;SDS011;27638;42.184;24.848;2023-02-16T12:43:49;22.45;;;14.80;;
41946;SDS011;27638;42.184;24.848;2023-02-16T12:46:37;31.80;;;15.52;;
41946;SDS011;27638;42.184;24.848;2023-02-16T12:49:22;25.75;;;15.15;;
41946;SDS011;27638;42.184;24.848;2023-02-16T12:51:54;27.25;;;15.30;;
41946;SDS011;27638;42.184;24.848;2023-02-16T12:54:35;26.77;;;14.63;;
41946;SDS011;27638;42.184;24.848;2023-02-16T12:57:12;29.10;;;15.40;;
41946;SDS011;27638;42.184;24.848;2023-02-16T12:59:47;30.02;;;16.92;;
41946;SDS011;27638;42.184;24.848;2023-02-16T13:02:25;30.35;;;16.98;;
41946;SDS011;27638;42.184;24.848;2023-02-16T13:04:58;28.02;;;14.68;;
41946;SDS011;27638;42.184;24.848;2023-02-16T13:07:42;28.50;;;15.35;;
41946;SDS011;27638;42.184;24.848;2023-02-16T13:10:17;31.02;;;15.30;;
41946;SDS011;27638;42.184;24.848;2023-02-16T13:12:59;27.90;;;16.27;;
41946;SDS011;27638;42.184;24.848;2023-02-16T13:15:35;28.02;;;15.45;;
41946;SDS011;27638;42.184;24.848;2023-02-16T13:18:04;25.02;;;14.90;;
41946;SDS011;27638;42.184;24.848;2023-02-16T13:20:39;31.42;;;16.23;;
41946;SDS011;27638;42.184;24.848;2023-02-16T13:37:14;28.40;;;15.13;;
41946;SDS011;27638;42.184;24.848;2023-02-16T13:45:26;28.50;;;14.77;;
41946;SDS011;27638;42.184;24.848;2023-02-16T13:47:55;24.65;;;14.85;;
41946;SDS011;27638;42.184;24.848;2023-02-16T13:52:47;25.90;;;13.98;;
41946;SDS011;27638;42.184;24.848;2023-02-16T13:55:31;25.77;;;14.93;;
41946;SDS011;27638;42.184;24.848;2023-02-16T14:03:33;23.85;;;14.77;;
41946;SDS011;27638;42.184;24.848;2023-02-16T14:16:51;24.08;;;13.85;;
41946;SDS011;27638;42.184;24.848;2023-02-16T14:19:20;23.00;;;13.00;;
41946;SDS011;27638;42.184;24.848;2023-02-16T14:21:49;23.48;;;14.32;;
41946;SDS011;27638;42.184;24.848;2023-02-16T14:26:51;25.15;;;13.77;;
41946;SDS011;27638;42.184;24.848;2023-02-16T14:29:22;20.77;;;13.43;;
41946;SDS011;27638;42.184;24.848;2023-02-16T14:32:33;20.80;;;12.93;;
41946;SDS011;27638;42.184;24.848;2023-02-16T14:35:07;25.20;;;13.43;;
41946;SDS011;27638;42.184;24.848;2023-02-16T14:37:50;21.63;;;12.60;;
41946;SDS011;27638;42.184;24.848;2023-02-16T14:40:20;23.98;;;13.63;;
41946;SDS011;27638;42.184;24.848;2023-02-16T14:43:04;21.92;;;13.63;;
41946;SDS011;27638;42.184;24.848;2023-02-16T15:05:22;24.25;;;13.88;;
41946;SDS011;27638;42.184;24.848;2023-02-16T15:07:55;21.17;;;12.13;;
41946;SDS011;27638;42.184;24.848;2023-02-16T15:10:46;22.10;;;12.63;;
41946;SDS011;27638;42.184;24.848;2023-02-16T15:13:27;24.20;;;13.38;;
41946;SDS011;27638;42.184;24.848;2023-02-16T15:15:55;23.50;;;13.02;;
41946;SDS011;27638;42.184;24.848;2023-02-16T15:18:27;22.15;;;13.35;;
41946;SDS011;27638;42.184;24.848;2023-02-16T15:20:56;21.85;;;11.80;;
41946;SDS011;27638;42.184;24.848;2023-02-16T15:23:26;21.45;;;12.60;;
41946;SDS011;27638;42.184;24.848;2023-02-16T15:28:21;29.27;;;12.70;;
41946;SDS011;27638;42.184;24.848;2023-02-16T15:31:24;23.70;;;12.55;;
41946;SDS011;27638;42.184;24.848;2023-02-16T15:33:43;35.35;;;12.35;;
41946;SDS011;27638;42.184;24.848;2023-02-16T15:36:19;33.25;;;13.38;;
41946;SDS011;27638;42.184;24.848;2023-02-16T15:41:22;28.75;;;13.73;;
41946;SDS011;27638;42.184;24.848;2023-02-16T15:43:57;29.63;;;13.60;;
41946;SDS011;27638;42.184;24.848;2023-02-16T15:48:56;33.10;;;12.85;;
41946;SDS011;27638;42.184;24.848;2023-02-16T15:54:03;30.88;;;14.63;;
41946;SDS011;27638;42.184;24.848;2023-02-16T15:56:47;32.40;;;14.15;;
41946;SDS011;27638;42.184;24.848;2023-02-16T15:59:22;32.03;;;13.30;;
41946;SDS011;27638;42.184;24.848;2023-02-16T16:04:57;34.08;;;14.18;;
41946;SDS011;27638;42.184;24.848;2023-02-16T16:07:27;26.90;;;12.43;;
41946;SDS011;27638;42.184;24.848;2023-02-16T16:09:56;26.63;;;12.20;;
41946;SDS011;27638;42.184;24.848;2023-02-16T16:12:23;28.70;;;13.13;;
41946;SDS011;27638;42.184;24.848;2023-02-16T16:14:56;29.27;;;13.23;;
41946;SDS011;27638;42.184;24.848;2023-02-16T16:17:36;30.38;;;12.93;;
41946;SDS011;27638;42.184;24.848;2023-02-16T16:27:58;45.95;;;14.88;;
41946;SDS011;27638;42.184;24.848;2023-02-16T16:33:02;35.92;;;14.30;;
41946;SDS011;27638;42.184;24.848;2023-02-16T16:38:05;25.63;;;12.25;;
41946;SDS011;27638;42.184;24.848;2023-02-16T16:40:44;31.60;;;12.88;;
41946;SDS011;27638;42.184;24.848;2023-02-16T16:43:15;26.02;;;11.88;;
41946;SDS011;27638;42.184;24.848;2023-02-16T16:45:47;23.20;;;11.60;;
41946;SDS011;27638;42.184;24.848;2023-02-16T16:48:17;25.70;;;12.47;;
41946;SDS011;27638;42.184;24.848;2023-02-16T16:50:49;22.98;;;12.77;;
41946;SDS011;27638;42.184;24.848;2023-02-16T16:53:53;29.70;;;13.48;;
41946;SDS011;27638;42.184;24.848;2023-02-16T16:56:24;25.10;;;15.13;;
41946;SDS011;27638;42.184;24.848;2023-02-16T16:58:51;27.35;;;15.85;;
41946;SDS011;27638;42.184;24.848;2023-02-16T17:01:18;32.95;;;15.60;;
41946;SDS011;27638;42.184;24.848;2023-02-16T17:03:45;30.17;;;15.73;;
41946;SDS011;27638;42.184;24.848;2023-02-16T17:06:11;27.20;;;15.45;;
41946;SDS011;27638;42.184;24.848;2023-02-16T17:08:38;32.65;;;16.40;;
41946;SDS011;27638;42.184;24.848;2023-02-16T17:11:05;28.65;;;16.23;;
41946;SDS011;27638;42.184;24.848;2023-02-16T17:13:33;31.23;;;15.52;;
41946;SDS011;27638;42.184;24.848;2023-02-16T17:16:01;34.85;;;17.98;;
41946;SDS011;27638;42.184;24.848;2023-02-16T17:18:29;34.08;;;18.85;;
41946;SDS011;27638;42.184;24.848;2023-02-16T17:20:55;37.40;;;19.80;;
41946;SDS011;27638;42.184;24.848;2023-02-16T17:23:21;34.53;;;18.92;;
41946;SDS011;27638;42.184;24.848;2023-02-16T17:25:47;33.95;;;17.98;;
41946;SDS011;27638;42.184;24.848;2023-02-16T17:28:14;34.17;;;19.90;;
41946;SDS011;27638;42.184;24.848;2023-02-16T17:30:41;37.28;;;19.38;;
41946;SDS011;27638;42.184;24.848;2023-02-16T17:33:08;36.28;;;19.67;;
41946;SDS011;27638;42.184;24.848;2023-02-16T17:35:34;40.03;;;21.77;;